createdAt,value
2023-04-25T00:00:42.693Z,1000.16
2023-04-25T00:01:42.643Z,1000.24
2023-04-25T00:02:42.746Z,1000.33
2023-04-25T00:03:42.797Z,1000.13
2023-04-25T00:04:42.981Z,1000.14
2023-04-25T00:05:42.619Z,1000.22
2023-04-25T00:06:42.575Z,1000.15
2023-04-25T00:07:42.542Z,1000.17
2023-04-25T00:08:42.537Z,1000.17
2023-04-25T00:09:42.516Z,1000.28
2023-04-25T00:10:42.538Z,1000.16
2023-04-25T00:11:42.492Z,1000.17
2023-04-25T00:12:42.499Z,1000.15
2023-04-25T00:13:42.459Z,1000.16
2023-04-25T00:14:42.449Z,1000.14
2023-04-25T00:15:42.598Z,1000.14
2023-04-25T00:16:42.549Z,1000.18
2023-04-25T00:17:42.468Z,1000.22
2023-04-25T00:18:42.396Z,1000.10
2023-04-25T00:19:42.385Z,1000.23
2023-04-25T00:20:42.381Z,1000.15
2023-04-25T00:21:42.360Z,1000.16
2023-04-25T00:22:42.352Z,1000.12
2023-04-25T00:23:42.378Z,1000.18
2023-04-25T00:24:42.327Z,1000.11
2023-04-25T00:25:42.417Z,1000.11
2023-04-25T00:26:42.314Z,1000.17
2023-04-25T00:27:42.283Z,1000.18
2023-04-25T00:28:42.376Z,1000.08
2023-04-25T00:29:42.271Z,1000.11
2023-04-25T00:30:42.249Z,1000.10
2023-04-25T00:31:42.320Z,1000.09
2023-04-25T00:32:42.288Z,1000.09
2023-04-25T00:33:42.215Z,1000.11
2023-04-25T00:34:42.202Z,1000.04
2023-04-25T00:35:42.185Z,1000.07
2023-04-25T00:36:42.156Z,1000.10
2023-04-25T00:37:42.159Z,1000.07
2023-04-25T00:38:42.161Z,1000.21
2023-04-25T00:39:42.140Z,1000.04
2023-04-25T00:40:42.105Z,1000.17
2023-04-25T00:41:42.103Z,1000.10
2023-04-25T00:42:42.088Z,1000.12
2023-04-25T00:43:42.085Z,1000.11
2023-04-25T00:44:42.117Z,1000.11
2023-04-25T00:45:42.062Z,1000.06
2023-04-25T00:46:42.042Z,1000.14
2023-04-25T00:47:42.081Z,1000.09
2023-04-25T00:48:42.011Z,1000.16
2023-04-25T00:49:42.016Z,1000.19
2023-04-25T00:50:41.987Z,1000.15
2023-04-25T00:51:41.991Z,1000.19
2023-04-25T00:52:41.959Z,1000.11
2023-04-25T00:53:41.974Z,1000.17
2023-04-25T00:54:41.930Z,1000.22
2023-04-25T00:55:41.960Z,1000.11
2023-04-25T00:56:41.904Z,1000.14
2023-04-25T00:57:41.903Z,1000.26
2023-04-25T00:58:41.872Z,1000.22
2023-04-25T00:59:41.872Z,1000.15
2023-04-25T01:00:41.872Z,1000.18
2023-04-25T01:01:41.879Z,1000.12
2023-04-25T01:02:41.936Z,1000.15
2023-04-25T01:03:42.458Z,1000.15
2023-04-25T01:04:41.795Z,1000.16
2023-04-25T01:05:41.799Z,1000.18
2023-04-25T01:06:41.833Z,1000.22
2023-04-25T01:07:41.787Z,1000.13
2023-04-25T01:08:41.758Z,1000.14
2023-04-25T01:09:41.758Z,1000.14
2023-04-25T01:10:41.745Z,1000.17
2023-04-25T01:11:41.719Z,1000.20
2023-04-25T01:12:41.714Z,1000.16
2023-04-25T01:13:41.729Z,1000.14
2023-04-25T01:14:41.686Z,1000.07
2023-04-25T01:15:41.698Z,1000.10
2023-04-25T01:16:41.683Z,1000.09
2023-04-25T01:17:41.678Z,1000.10
2023-04-25T01:18:41.618Z,1000.08
2023-04-25T01:19:41.624Z,1000.09
2023-04-25T01:20:41.601Z,1000.07
2023-04-25T01:21:41.604Z,1000.07
2023-04-25T01:22:41.595Z,1000.07
2023-04-25T01:23:41.586Z,1000.03
2023-04-25T01:24:41.568Z,1000.04
2023-04-25T01:25:41.577Z,1000.08
2023-04-25T01:26:41.529Z,1000.10
2023-04-25T01:27:41.520Z,1000.12
2023-04-25T01:28:41.504Z,1000.15
2023-04-25T01:29:41.540Z,1000.12
2023-04-25T01:30:41.510Z,1000.10
2023-04-25T01:31:41.473Z,1000.11
2023-04-25T01:32:41.547Z,1000.07
2023-04-25T01:33:41.437Z,1000.13
2023-04-25T01:34:41.416Z,1000.22
2023-04-25T01:35:41.425Z,1000.13
2023-04-25T01:36:41.387Z,1000.18
2023-04-25T01:37:41.380Z,1000.11
2023-04-25T01:38:41.367Z,1000.12
2023-04-25T01:39:41.402Z,1000.23
2023-04-25T01:40:41.371Z,1000.15
2023-04-25T01:41:41.369Z,1000.14
2023-04-25T01:42:41.336Z,1000.04
2023-04-25T01:43:41.311Z,1000.13
2023-04-25T01:44:41.315Z,1000.12
2023-04-25T01:45:41.302Z,1000.07
2023-04-25T01:46:41.328Z,1000.06
2023-04-25T01:47:41.314Z,1000.07
2023-04-25T01:48:41.253Z,1000.07
2023-04-25T01:49:41.256Z,1000.14
2023-04-25T01:50:41.242Z,1000.13
2023-04-25T01:51:41.234Z,1000.09
2023-04-25T01:52:41.220Z,1000.15
2023-04-25T01:53:41.181Z,1000.18
2023-04-25T01:54:41.196Z,1000.10
2023-04-25T01:55:41.152Z,1000.10
2023-04-25T01:56:41.167Z,1000.14
2023-04-25T01:57:41.176Z,1000.11
2023-04-25T01:58:41.134Z,1000.10
2023-04-25T01:59:41.099Z,1000.14
2023-04-25T02:00:41.144Z,1000.04
2023-04-25T02:01:41.163Z,1000.14
2023-04-25T02:02:41.212Z,1000.11
2023-04-25T02:03:41.207Z,1000.15
2023-04-25T02:04:41.227Z,1000.17
2023-04-25T02:05:41.015Z,1000.21
2023-04-25T02:06:41.017Z,1000.17
2023-04-25T02:07:41.018Z,1000.17
2023-04-25T02:08:41.028Z,1000.18
2023-04-25T02:09:41.015Z,1000.14
2023-04-25T02:10:40.956Z,1000.21
2023-04-25T02:11:40.981Z,1000.15
2023-04-25T02:12:40.965Z,1000.15
2023-04-25T02:13:40.948Z,1000.16
2023-04-25T02:14:40.939Z,1000.21
2023-04-25T02:15:40.946Z,1000.22
2023-04-25T02:16:40.956Z,1000.20
2023-04-25T02:17:40.902Z,1000.20
2023-04-25T02:18:40.846Z,1000.18
2023-04-25T02:19:40.855Z,1000.20
2023-04-25T02:20:40.855Z,1000.20
2023-04-25T02:21:40.823Z,1000.17
2023-04-25T02:22:40.843Z,1000.18
2023-04-25T02:23:40.833Z,1000.20
2023-04-25T02:24:40.771Z,1000.17
2023-04-25T02:25:40.786Z,1000.20
2023-04-25T02:26:40.753Z,1000.19
2023-04-25T02:27:40.751Z,1000.26
2023-04-25T02:28:40.747Z,1000.20
2023-04-25T02:29:40.717Z,1000.24
2023-04-25T02:30:40.703Z,1000.17
2023-04-25T02:31:40.744Z,1000.19
2023-04-25T02:32:40.715Z,1000.21
2023-04-25T02:33:40.693Z,1000.14
2023-04-25T02:34:40.665Z,1000.16
2023-04-25T02:35:40.693Z,1000.15
2023-04-25T02:36:40.629Z,1000.17
2023-04-25T02:37:40.640Z,1000.17
2023-04-25T02:38:40.609Z,1000.19
2023-04-25T02:39:40.604Z,1000.19
2023-04-25T02:40:40.622Z,1000.21
2023-04-25T02:41:40.582Z,1000.16
2023-04-25T02:42:40.556Z,1000.21
2023-04-25T02:43:40.543Z,1000.20
2023-04-25T02:44:40.560Z,1000.16
2023-04-25T02:45:40.523Z,1000.16
2023-04-25T02:46:40.555Z,1000.14
2023-04-25T02:47:40.539Z,1000.16
2023-04-25T02:48:40.468Z,1000.12
2023-04-25T02:49:40.455Z,1000.09
2023-04-25T02:50:40.447Z,1000.18
2023-04-25T02:51:40.452Z,1000.14
2023-04-25T02:52:40.425Z,1000.14
2023-04-25T02:53:40.415Z,1000.15
2023-04-25T02:54:40.414Z,1000.10
2023-04-25T02:55:40.384Z,1000.17
2023-04-25T02:56:40.400Z,1000.11
2023-04-25T02:57:40.355Z,1000.19
2023-04-25T02:58:40.335Z,1000.19
2023-04-25T02:59:40.333Z,1000.15
2023-04-25T03:00:40.479Z,1000.13
2023-04-25T03:01:47.336Z,1000.16
2023-04-25T03:02:47.428Z,1000.16
2023-04-25T03:03:40.314Z,1000.24
2023-04-25T03:04:40.320Z,1000.16
2023-04-25T03:05:40.262Z,1000.18
2023-04-25T03:06:40.264Z,1000.10
2023-04-25T03:07:40.260Z,1000.09
2023-04-25T03:08:40.226Z,1000.13
2023-04-25T03:09:40.222Z,1000.11
2023-04-25T03:10:40.185Z,1000.15
2023-04-25T03:11:40.190Z,1000.17
2023-04-25T03:12:40.190Z,1000.21
2023-04-25T03:13:40.163Z,1000.10
2023-04-25T03:14:40.141Z,1000.18
2023-04-25T03:15:47.213Z,1000.15
2023-04-25T03:16:40.191Z,1000.10
2023-04-25T03:17:40.160Z,1000.11
2023-04-25T03:18:40.071Z,1000.10
2023-04-25T03:19:40.092Z,1000.14
2023-04-25T03:20:40.067Z,1000.06
2023-04-25T03:21:40.093Z,1000.15
2023-04-25T03:22:40.042Z,1000.12
2023-04-25T03:23:40.021Z,1000.09
2023-04-25T03:24:40.009Z,1000.17
2023-04-25T03:25:40.000Z,1000.11
2023-04-25T03:26:39.971Z,1000.07
2023-04-25T03:27:39.977Z,1000.11
2023-04-25T03:28:39.953Z,1000.15
2023-04-25T03:29:39.943Z,1000.11
2023-04-25T03:30:39.923Z,1000.12
2023-04-25T03:31:40.000Z,1000.15
2023-04-25T03:32:39.931Z,1000.14
2023-04-25T03:33:39.925Z,1000.07
2023-04-25T03:34:39.864Z,1000.08
2023-04-25T03:35:39.899Z,1000.19
2023-04-25T03:36:41.654Z,1000.27
2023-04-25T03:37:39.881Z,1000.25
2023-04-25T03:38:39.833Z,1000.12
2023-04-25T03:39:39.846Z,1000.12
2023-04-25T03:40:39.797Z,1000.13
2023-04-25T03:41:39.802Z,1000.12
2023-04-25T03:42:39.779Z,1000.14
2023-04-25T03:43:39.768Z,1000.10
2023-04-25T03:44:39.764Z,1000.20
2023-04-25T03:45:39.781Z,1000.22
2023-04-25T03:46:39.727Z,1000.20
2023-04-25T03:47:39.787Z,1000.18
2023-04-25T03:48:39.752Z,1000.23
2023-04-25T03:49:39.708Z,1000.26
2023-04-25T03:50:39.706Z,1000.24
2023-04-25T03:51:39.673Z,1000.23
2023-04-25T03:52:39.643Z,1000.25
2023-04-25T03:53:39.647Z,1000.21
2023-04-25T03:54:39.617Z,1000.21
2023-04-25T03:55:41.295Z,1000.21
2023-04-25T03:56:39.629Z,1000.22
2023-04-25T03:57:39.584Z,1000.25
2023-04-25T03:58:39.560Z,1000.24
2023-04-25T03:59:39.580Z,1000.22
2023-04-25T04:00:39.570Z,1000.41
2023-04-25T04:01:39.532Z,1000.28
2023-04-25T04:02:39.637Z,1000.22
2023-04-25T04:03:39.772Z,1000.38
2023-04-25T04:04:39.916Z,1000.25
2023-04-25T04:05:39.615Z,1000.26
2023-04-25T04:06:39.525Z,1000.31
2023-04-25T04:07:39.461Z,1000.29
2023-04-25T04:08:39.459Z,1000.30
2023-04-25T04:09:39.440Z,1000.32
2023-04-25T04:10:39.448Z,1000.33
2023-04-25T04:11:39.415Z,1000.36
2023-04-25T04:12:39.399Z,1000.36
2023-04-25T04:13:39.409Z,1000.34
2023-04-25T04:14:39.424Z,1000.40
2023-04-25T04:15:39.397Z,1000.40
2023-04-25T04:16:39.441Z,1000.40
2023-04-25T04:17:39.408Z,1000.38
2023-04-25T04:18:39.329Z,1000.39
2023-04-25T04:19:39.343Z,1000.46
2023-04-25T04:20:39.304Z,1000.49
2023-04-25T04:21:39.278Z,1000.41
2023-04-25T04:22:39.264Z,1000.51
2023-04-25T04:23:39.975Z,1000.44
2023-04-25T04:24:39.251Z,1000.42
2023-04-25T04:25:39.211Z,1000.36
2023-04-25T04:26:39.241Z,1000.49
2023-04-25T04:27:39.207Z,1000.40
2023-04-25T04:28:39.257Z,1000.38
2023-04-25T04:29:39.210Z,1000.43
2023-04-25T04:30:39.174Z,1000.45
2023-04-25T04:31:39.224Z,1000.43
2023-04-25T04:32:39.143Z,1000.46
2023-04-25T04:33:39.141Z,1000.45
2023-04-25T04:34:39.095Z,1000.51
2023-04-25T04:35:39.119Z,1000.50
2023-04-25T04:36:39.085Z,1000.50
2023-04-25T04:37:39.067Z,1000.51
2023-04-25T04:38:41.360Z,1000.56
2023-04-25T04:39:39.052Z,1000.44
2023-04-25T04:40:39.047Z,1000.51
2023-04-25T04:41:39.076Z,1000.54
2023-04-25T04:42:39.022Z,1000.52
2023-04-25T04:43:39.011Z,1000.50
2023-04-25T04:44:39.022Z,1000.51
2023-04-25T04:45:39.052Z,1000.50
2023-04-25T04:46:39.110Z,1000.57
2023-04-25T04:47:38.967Z,1000.68
2023-04-25T04:48:38.940Z,1000.55
2023-04-25T04:49:38.936Z,1000.57
2023-04-25T04:50:38.924Z,1000.60
2023-04-25T04:51:38.914Z,1000.57
2023-04-25T04:52:38.896Z,1000.57
2023-04-25T04:53:38.945Z,1000.61
2023-04-25T04:54:38.866Z,1000.58
2023-04-25T04:55:38.855Z,1000.47
2023-04-25T04:56:38.836Z,1000.64
2023-04-25T04:57:38.823Z,1000.61
2023-04-25T04:58:38.809Z,1000.58
2023-04-25T04:59:38.816Z,1000.64
2023-04-25T05:00:38.864Z,1000.57
2023-04-25T05:01:38.775Z,1000.62
2023-04-25T05:02:38.958Z,1000.55
2023-04-25T05:03:38.971Z,1000.54
2023-04-25T05:04:38.864Z,1000.56
2023-04-25T05:05:38.725Z,1000.51
2023-04-25T05:06:38.707Z,1000.52
2023-04-25T05:07:38.698Z,1000.57
2023-04-25T05:08:38.693Z,1000.51
2023-04-25T05:09:38.687Z,1000.55
2023-04-25T05:10:38.661Z,1000.58
2023-04-25T05:11:38.636Z,1000.56
2023-04-25T05:12:38.617Z,1000.51
2023-04-25T05:13:38.620Z,1000.60
2023-04-25T05:14:38.609Z,1000.58
2023-04-25T05:15:38.619Z,1000.61
2023-04-25T05:16:38.669Z,1000.58
2023-04-25T05:17:38.628Z,1000.57
2023-04-25T05:18:38.544Z,1000.61
2023-04-25T05:19:38.550Z,1000.60
2023-04-25T05:20:38.581Z,1000.65
2023-04-25T05:21:38.555Z,1000.52
2023-04-25T05:22:38.683Z,1000.58
2023-04-25T05:23:38.525Z,1000.60
2023-04-25T05:24:38.469Z,1000.69
2023-04-25T05:25:38.488Z,1000.65
2023-04-25T05:26:38.443Z,1000.71
2023-04-25T05:27:38.444Z,1000.66
2023-04-25T05:28:38.442Z,1000.64
2023-04-25T05:29:38.428Z,1000.66
2023-04-25T05:30:38.415Z,1000.71
2023-04-25T05:31:38.442Z,1000.79
2023-04-25T05:32:38.431Z,1000.68
2023-04-25T05:33:38.416Z,1000.68
2023-04-25T05:34:38.353Z,1000.65
2023-04-25T05:35:38.409Z,1000.73
2023-04-25T05:36:38.314Z,1000.73
2023-04-25T05:37:38.312Z,1000.68
2023-04-25T05:38:38.319Z,1000.66
2023-04-25T05:39:38.272Z,1000.72
2023-04-25T05:40:38.269Z,1000.70
2023-04-25T05:41:38.283Z,1000.70
2023-04-25T05:42:38.253Z,1000.82
2023-04-25T05:43:38.224Z,1000.82
2023-04-25T05:44:38.209Z,1000.84
2023-04-25T05:45:38.234Z,1000.81
2023-04-25T05:46:38.282Z,1000.80
2023-04-25T05:47:38.251Z,1000.85
2023-04-25T05:48:38.526Z,1000.80
2023-04-25T05:49:38.154Z,1000.80
2023-04-25T05:50:38.162Z,1000.79
2023-04-25T05:51:38.144Z,1000.80
2023-04-25T05:52:38.152Z,1000.82
2023-04-25T05:53:38.131Z,1000.88
2023-04-25T05:54:38.123Z,1000.85
2023-04-25T05:55:38.056Z,1000.86
2023-04-25T05:56:38.053Z,1000.96
2023-04-25T05:57:38.048Z,1000.88
2023-04-25T05:58:38.033Z,1000.82
2023-04-25T05:59:38.014Z,1000.83
2023-04-25T06:00:37.994Z,1000.95
2023-04-25T06:01:37.992Z,1000.89
2023-04-25T06:02:38.098Z,1000.90
2023-04-25T06:03:38.160Z,1000.86
2023-04-25T06:04:38.378Z,1000.94
2023-04-25T06:05:38.002Z,1000.97
2023-04-25T06:06:37.934Z,1000.99
2023-04-25T06:07:37.929Z,1001.03
2023-04-25T06:08:37.997Z,1001.01
2023-04-25T06:09:37.948Z,1000.98
2023-04-25T06:10:37.898Z,1001.00
2023-04-25T06:11:37.895Z,1000.95
2023-04-25T06:12:37.844Z,1000.98
2023-04-25T06:13:37.835Z,1000.95
2023-04-25T06:14:37.838Z,1000.97
2023-04-25T06:15:37.861Z,1000.98
2023-04-25T06:16:37.837Z,1001.04
2023-04-25T06:17:37.815Z,1000.98
2023-04-25T06:18:37.805Z,1001.04
2023-04-25T06:19:37.803Z,1001.00
2023-04-25T06:20:37.798Z,1000.98
2023-04-25T06:21:37.737Z,1000.98
2023-04-25T06:22:37.717Z,1001.09
2023-04-25T06:23:37.718Z,1001.07
2023-04-25T06:24:37.753Z,1001.13
2023-04-25T06:25:37.692Z,1001.12
2023-04-25T06:26:37.677Z,1001.11
2023-04-25T06:27:37.712Z,1001.11
2023-04-25T06:28:37.740Z,1001.14
2023-04-25T06:29:37.663Z,1001.03
2023-04-25T06:30:37.644Z,1000.99
2023-04-25T06:31:37.658Z,1000.96
2023-04-25T06:32:37.629Z,1001.00
2023-04-25T06:33:37.592Z,1000.98
2023-04-25T06:34:37.564Z,1001.01
2023-04-25T06:35:37.548Z,1001.03
2023-04-25T06:36:37.584Z,1001.03
2023-04-25T06:37:37.527Z,1001.04
2023-04-25T06:38:37.528Z,1001.08
2023-04-25T06:39:39.868Z,1001.12
2023-04-25T06:40:37.521Z,1001.03
2023-04-25T06:41:37.463Z,1001.02
2023-04-25T06:42:37.497Z,1001.04
2023-04-25T06:43:37.486Z,1001.04
2023-04-25T06:44:37.460Z,1001.07
2023-04-25T06:45:37.438Z,1001.08
2023-04-25T06:46:37.488Z,1001.06
2023-04-25T06:47:37.478Z,1001.12
2023-04-25T06:48:37.423Z,1001.03
2023-04-25T06:49:37.383Z,1001.23
2023-04-25T06:50:37.386Z,1000.98
2023-04-25T06:51:37.350Z,1001.03
2023-04-25T06:52:37.347Z,1001.01
2023-04-25T06:53:37.324Z,1001.03
2023-04-25T06:54:37.313Z,1000.91
2023-04-25T06:55:37.307Z,1000.95
2023-04-25T06:56:37.276Z,1000.94
2023-04-25T06:57:37.294Z,1000.94
2023-04-25T06:58:37.264Z,1000.97
2023-04-25T06:59:37.283Z,1000.91
2023-04-25T07:00:37.260Z,1001.02
2023-04-25T07:01:37.236Z,1000.94
2023-04-25T07:02:37.433Z,1000.97
2023-04-25T07:03:37.301Z,1000.94
2023-04-25T07:04:37.513Z,1001.02
2023-04-25T07:05:37.181Z,1001.00
2023-04-25T07:06:37.160Z,1000.98
2023-04-25T07:07:37.155Z,1001.05
2023-04-25T07:08:37.141Z,1001.00
2023-04-25T07:09:37.123Z,1001.04
2023-04-25T07:10:37.126Z,1001.07
2023-04-25T07:11:37.136Z,1001.07
2023-04-25T07:12:37.107Z,1001.09
2023-04-25T07:13:37.090Z,1001.11
2023-04-25T07:14:37.092Z,1001.17
2023-04-25T07:15:37.073Z,1001.24
2023-04-25T07:16:37.134Z,1001.18
2023-04-25T07:17:37.082Z,1001.20
2023-04-25T07:18:37.036Z,1001.21
2023-04-25T07:19:36.996Z,1001.18
2023-04-25T07:20:36.982Z,1001.20
2023-04-25T07:21:36.974Z,1001.12
2023-04-25T07:22:36.982Z,1001.23
2023-04-25T07:23:36.955Z,1001.25
2023-04-25T07:24:36.931Z,1001.23
2023-04-25T07:25:36.931Z,1001.14
2023-04-25T07:26:36.907Z,1001.26
2023-04-25T07:27:36.896Z,1001.30
2023-04-25T07:28:36.883Z,1001.30
2023-04-25T07:29:36.870Z,1001.23
2023-04-25T07:30:36.873Z,1001.28
2023-04-25T07:31:36.952Z,1001.32
2023-04-25T07:32:36.867Z,1001.31
2023-04-25T07:33:36.816Z,1001.28
2023-04-25T07:34:36.817Z,1001.34
2023-04-25T07:35:36.782Z,1001.32
2023-04-25T07:36:36.796Z,1001.35
2023-04-25T07:37:36.786Z,1001.40
2023-04-25T07:38:36.804Z,1001.39
2023-04-25T07:39:36.738Z,1001.36
2023-04-25T07:40:36.753Z,1001.36
2023-04-25T07:41:36.722Z,1001.42
2023-04-25T07:42:36.739Z,1001.39
2023-04-25T07:43:36.698Z,1001.34
2023-04-25T07:44:36.661Z,1001.54
2023-04-25T07:45:36.691Z,1001.37
2023-04-25T07:46:36.669Z,1001.47
2023-04-25T07:47:36.662Z,1001.53
2023-04-25T07:48:36.634Z,1001.52
2023-04-25T07:49:36.632Z,1001.58
2023-04-25T07:50:36.620Z,1001.59
2023-04-25T07:51:36.579Z,1001.54
2023-04-25T07:52:36.575Z,1001.62
2023-04-25T07:53:36.594Z,1001.51
2023-04-25T07:54:37.353Z,1001.42
2023-04-25T07:55:36.571Z,1001.53
2023-04-25T07:56:48.944Z,1001.50
2023-04-25T07:57:37.517Z,1001.52
2023-04-25T07:58:36.532Z,1001.51
2023-04-25T07:59:36.529Z,1001.45
2023-04-25T08:00:36.485Z,1001.49
2023-04-25T08:01:36.518Z,1001.55
2023-04-25T08:02:36.607Z,1001.54
2023-04-25T08:03:36.701Z,1001.57
2023-04-25T08:04:36.674Z,1001.66
2023-04-25T08:05:36.513Z,1001.62
2023-04-25T08:06:36.536Z,1001.74
2023-04-25T08:07:36.384Z,1001.72
2023-04-25T08:08:36.417Z,1001.72
2023-04-25T08:09:36.365Z,1001.75
2023-04-25T08:10:36.356Z,1001.80
2023-04-25T08:11:36.398Z,1001.72
2023-04-25T08:12:36.302Z,1001.67
2023-04-25T08:13:36.292Z,1001.73
2023-04-25T08:14:36.359Z,1001.75
2023-04-25T08:15:36.349Z,1001.88
2023-04-25T08:16:36.271Z,1001.75
2023-04-25T08:17:36.267Z,1001.79
2023-04-25T08:18:36.267Z,1001.74
2023-04-25T08:19:36.268Z,1001.85
2023-04-25T08:20:36.219Z,1001.87
2023-04-25T08:21:36.377Z,1001.90
2023-04-25T08:22:36.307Z,1001.81
2023-04-25T08:23:36.185Z,1001.76
2023-04-25T08:24:39.249Z,1001.81
2023-04-25T08:25:36.151Z,1001.85
2023-04-25T08:26:36.168Z,1001.80
2023-04-25T08:27:36.130Z,1001.97
2023-04-25T08:28:36.115Z,1001.90
2023-04-25T08:29:36.100Z,1001.96
2023-04-25T08:30:36.156Z,1002.08
2023-04-25T08:31:36.157Z,1001.98
2023-04-25T08:32:36.133Z,1001.96
2023-04-25T08:33:36.056Z,1001.97
2023-04-25T08:34:36.083Z,1001.94
2023-04-25T08:35:36.067Z,1001.95
2023-04-25T08:36:39.938Z,1001.90
2023-04-25T08:37:36.001Z,1002.03
2023-04-25T08:38:35.987Z,1001.98
2023-04-25T08:39:35.983Z,1002.06
2023-04-25T08:40:35.949Z,1002.01
2023-04-25T08:41:35.953Z,1002.06
2023-04-25T08:42:35.950Z,1002.12
2023-04-25T08:43:35.921Z,1002.04
2023-04-25T08:44:35.907Z,1002.13
2023-04-25T08:45:35.893Z,1002.09
2023-04-25T08:46:35.896Z,1002.27
2023-04-25T08:47:35.882Z,1002.07
2023-04-25T08:48:35.861Z,1002.16
2023-04-25T08:49:35.843Z,1002.13
2023-04-25T08:50:35.812Z,1002.12
2023-04-25T08:51:35.799Z,1002.21
2023-04-25T08:52:35.811Z,1002.14
2023-04-25T08:53:36.376Z,1002.11
2023-04-25T08:54:37.269Z,1002.13
2023-04-25T08:55:35.762Z,1002.03
2023-04-25T08:56:35.737Z,1002.12
2023-04-25T08:57:35.732Z,1002.15
2023-04-25T08:58:35.729Z,1002.09
2023-04-25T08:59:37.867Z,1002.14
2023-04-25T09:00:35.702Z,1002.06
2023-04-25T09:01:35.735Z,1002.18
2023-04-25T09:02:35.777Z,1002.09
2023-04-25T09:03:35.941Z,1002.19
2023-04-25T09:04:35.654Z,1002.26
2023-04-25T09:05:35.644Z,1002.19
2023-04-25T09:06:35.705Z,1002.19
2023-04-25T09:07:35.596Z,1002.23
2023-04-25T09:08:35.572Z,1002.29
2023-04-25T09:09:35.608Z,1002.34
2023-04-25T09:10:35.594Z,1002.21
2023-04-25T09:11:35.558Z,1002.29
2023-04-25T09:12:35.527Z,1002.28
2023-04-25T09:13:35.543Z,1002.34
2023-04-25T09:14:35.536Z,1002.31
2023-04-25T09:16:40.504Z,1002.31
2023-04-25T09:17:40.133Z,1002.29
2023-04-25T09:18:40.209Z,1002.35
2023-04-25T09:19:41.397Z,1002.33
2023-04-25T09:20:51.046Z,1002.51
2023-04-25T09:21:41.030Z,1002.56
2023-04-25T09:22:40.015Z,1002.59
2023-04-25T09:23:40.019Z,1002.39
2023-04-25T09:24:40.068Z,1002.46
2023-04-25T09:25:39.999Z,1002.41
2023-04-25T09:26:39.967Z,1002.41
2023-04-25T09:27:39.952Z,1002.40
2023-04-25T09:28:39.929Z,1002.53
2023-04-25T09:29:39.929Z,1002.52
2023-04-25T09:30:39.940Z,1002.49
2023-04-25T09:31:39.951Z,1002.45
2023-04-25T09:32:39.930Z,1002.53
2023-04-25T09:33:39.887Z,1002.58
2023-04-25T09:34:39.868Z,1002.50
2023-04-25T09:35:39.918Z,1002.60
2023-04-25T09:36:39.882Z,1002.65
2023-04-25T09:37:39.853Z,1002.53
2023-04-25T09:38:39.835Z,1002.49
2023-04-25T09:39:39.818Z,1002.57
2023-04-25T09:40:39.797Z,1002.53
2023-04-25T09:41:39.788Z,1002.53
2023-04-25T09:42:39.782Z,1002.60
2023-04-25T09:43:39.747Z,1002.65
2023-04-25T09:44:39.786Z,1002.62
2023-04-25T09:45:39.780Z,1002.60
2023-04-25T09:46:39.751Z,1002.63
2023-04-25T09:47:39.761Z,1002.76
2023-04-25T09:48:39.694Z,1002.63
2023-04-25T09:49:39.699Z,1002.61
2023-04-25T09:50:39.679Z,1002.68
2023-04-25T09:51:39.664Z,1002.80
2023-04-25T09:52:39.638Z,1002.63
2023-04-25T09:53:39.652Z,1002.63
2023-04-25T09:54:39.606Z,1002.60
2023-04-25T09:55:39.618Z,1002.81
2023-04-25T09:56:39.573Z,1002.81
2023-04-25T09:57:39.575Z,1002.56
2023-04-25T09:58:39.577Z,1002.81
2023-04-25T09:59:39.558Z,1002.65
2023-04-25T10:00:39.546Z,1002.66
2023-04-25T10:01:39.534Z,1002.63
2023-04-25T10:02:39.656Z,1002.62
2023-04-25T10:03:39.596Z,1002.59
2023-04-25T10:04:39.574Z,1002.59
2023-04-25T10:05:39.486Z,1002.58
2023-04-25T10:06:39.444Z,1002.61
2023-04-25T10:07:39.506Z,1002.60
2023-04-25T10:08:39.465Z,1002.63
2023-04-25T10:09:39.421Z,1002.65
2023-04-25T10:10:39.414Z,1002.67
2023-04-25T10:11:39.405Z,1002.70
2023-04-25T10:12:39.366Z,1002.69
2023-04-25T10:13:39.374Z,1002.66
2023-04-25T10:14:39.350Z,1002.63
2023-04-25T10:15:40.338Z,1002.68
2023-04-25T10:16:39.335Z,1002.72
2023-04-25T10:17:39.347Z,1002.74
2023-04-25T10:18:39.293Z,1002.69
2023-04-25T10:19:39.295Z,1002.86
2023-04-25T10:20:39.322Z,1002.83
2023-04-25T10:21:39.302Z,1002.63
2023-04-25T10:22:39.244Z,1002.80
2023-04-25T10:23:39.260Z,1002.78
2023-04-25T10:24:39.254Z,1002.75
2023-04-25T10:25:39.207Z,1002.79
2023-04-25T10:26:39.213Z,1002.77
2023-04-25T10:27:39.220Z,1002.73
2023-04-25T10:28:39.190Z,1002.74
2023-04-25T10:29:39.254Z,1002.71
2023-04-25T10:30:39.221Z,1002.85
2023-04-25T10:31:39.208Z,1002.76
2023-04-25T10:32:39.166Z,1003.11
2023-04-25T10:33:39.100Z,1002.80
2023-04-25T10:34:39.082Z,1002.80
2023-04-25T10:35:39.124Z,1002.67
2023-04-25T10:36:39.060Z,1002.76
2023-04-25T10:37:40.625Z,1002.84
2023-04-25T10:38:39.067Z,1002.85
2023-04-25T10:39:39.038Z,1002.71
2023-04-25T10:40:39.007Z,1002.84
2023-04-25T10:41:39.002Z,1002.82
2023-04-25T10:42:39.002Z,1002.81
2023-04-25T10:43:38.987Z,1002.93
2023-04-25T10:44:38.971Z,1002.75
2023-04-25T10:45:38.949Z,1002.68
2023-04-25T10:46:39.017Z,1002.80
2023-04-25T10:47:38.966Z,1002.80
2023-04-25T10:48:38.916Z,1002.91
2023-04-25T10:49:38.898Z,1002.80
2023-04-25T10:50:38.890Z,1002.90
2023-04-25T10:51:51.418Z,1002.89
2023-04-25T10:52:39.855Z,1002.92
2023-04-25T10:53:38.877Z,1002.90
2023-04-25T10:54:38.851Z,1003.10
2023-04-25T10:55:38.821Z,1002.83
2023-04-25T10:56:38.822Z,1002.93
2023-04-25T10:57:44.526Z,1002.95
2023-04-25T10:58:38.801Z,1002.86
2023-04-25T10:59:38.779Z,1002.93
2023-04-25T11:00:48.205Z,1003.03
2023-04-25T11:01:39.816Z,1003.02
2023-04-25T11:02:38.941Z,1002.94
2023-04-25T11:03:38.881Z,1003.09
2023-04-25T11:04:39.014Z,1003.02
2023-04-25T11:05:51.101Z,1002.96
2023-04-25T11:06:39.662Z,1003.12
2023-04-25T11:07:38.686Z,1003.07
2023-04-25T11:08:38.653Z,1003.09
2023-04-25T11:09:38.664Z,1003.03
2023-04-25T11:10:38.629Z,1003.07
2023-04-25T11:11:38.603Z,1003.04
2023-04-25T11:12:38.643Z,1003.10
2023-04-25T11:13:38.603Z,1002.96
2023-04-25T11:15:38.570Z,1003.02
2023-04-25T11:16:38.588Z,1003.10
2023-04-25T11:17:38.756Z,1003.20
2023-04-25T11:18:38.555Z,1003.22
2023-04-25T11:19:38.543Z,1003.15
2023-04-25T11:20:38.520Z,1003.12
2023-04-25T11:21:38.554Z,1003.18
2023-04-25T11:22:38.482Z,1003.10
2023-04-25T11:23:38.459Z,1003.13
2023-04-25T11:24:38.444Z,1003.16
2023-04-25T11:25:39.026Z,1003.14
2023-04-25T11:26:38.410Z,1003.29
2023-04-25T11:27:38.396Z,1003.21
2023-04-25T11:28:38.377Z,1003.16
2023-04-25T11:29:38.388Z,1003.11
2023-04-25T11:30:38.378Z,1003.17
2023-04-25T11:31:38.400Z,1003.27
2023-04-25T11:32:38.479Z,1003.18
2023-04-25T11:33:38.320Z,1003.22
2023-04-25T11:34:38.336Z,1003.22
2023-04-25T11:35:38.294Z,1003.29
2023-04-25T11:36:38.307Z,1003.30
2023-04-25T11:37:38.335Z,1003.29
2023-04-25T11:38:38.260Z,1003.24
2023-04-25T11:39:38.244Z,1003.30
2023-04-25T11:40:38.221Z,1003.43
2023-04-25T11:41:38.349Z,1003.44
2023-04-25T11:42:38.208Z,1003.79
2023-04-25T11:43:38.202Z,1003.53
2023-04-25T11:44:38.189Z,1003.38
2023-04-25T11:45:38.224Z,1003.43
2023-04-25T11:46:38.187Z,1003.51
2023-04-25T11:47:38.182Z,1003.51
2023-04-25T11:48:38.124Z,1003.50
2023-04-25T11:49:38.112Z,1003.53
2023-04-25T11:50:38.127Z,1003.57
2023-04-25T11:51:38.108Z,1003.54
2023-04-25T11:52:38.089Z,1003.61
2023-04-25T11:53:38.064Z,1003.59
2023-04-25T11:54:38.041Z,1003.62
2023-04-25T11:55:38.044Z,1003.56
2023-04-25T11:56:38.018Z,1003.64
2023-04-25T11:57:38.022Z,1003.63
2023-04-25T11:58:38.004Z,1003.53
2023-04-25T11:59:37.987Z,1003.59
2023-04-25T12:00:37.986Z,1003.65
2023-04-25T12:01:37.969Z,1003.60
2023-04-25T12:02:38.160Z,1003.87
2023-04-25T12:03:38.177Z,1003.66
2023-04-25T12:04:38.413Z,1003.79
2023-04-25T12:05:38.084Z,1003.70
2023-04-25T12:06:37.946Z,1003.78
2023-04-25T12:07:37.926Z,1003.60